Time;durP1;ratioP1;P1;durP2;ratioP2;P2;SDS_P1;SDS_P2;PMS_P1;PMS_P2;Temp;Humidity;BMP_temperature;BMP_pressure;BME280_temperature;BME280_humidity;BME280_pressure;Samples;Min_cycle;Max_cycle;Signal;HPM_P1;HPM_P2
2024/04/15 00:01:48;;;;;;;;;;;;;;;-144.99;85.10;52448.09;5374848;26;20399;-68
2024/04/15 00:04:14;;;;;;;;;;;;;;;-144.99;85.20;52446.06;5376289;26;19936;-67
2024/04/15 00:06:45;;;;;;;;;;;;;;;-144.99;85.34;52452.16;5370067;26;19949;-66
2024/04/15 00:09:11;;;;;;;;;;;;;;;-144.99;85.72;52472.56;5376270;26;19975;-67
2024/04/15 00:11:39;;;;;;;;;;;;;;;-144.99;85.70;52480.72;5371107;26;19960;-67
2024/04/15 00:14:05;;;;;;;;;;;;;;;-144.99;85.93;52435.88;5376179;26;20024;-66
2024/04/15 00:16:34;;;;;;;;;;;;;;;-144.99;85.78;52474.59;5359542;26;19931;-67
2024/04/15 00:19:00;;;;;;;;;;;;;;;-144.99;86.00;52435.88;5371403;26;19930;-66
2024/04/15 00:21:28;;;;;;;;;;;;;;;-144.99;86.36;52460.31;5368153;26;19999;-67
2024/04/15 00:23:57;;;;;;;;;;;;;;;-144.99;86.41;52448.09;5370657;26;19930;-66
2024/04/15 00:26:25;;;;;;;;;;;;;;;-144.99;86.40;52456.25;5362316;26;19929;-65
2024/04/15 00:28:51;;;;;;;;;;;;;;;-144.99;86.49;52486.81;5364547;26;20004;-65
2024/04/15 00:31:20;;;;;;;;;;;;;;;-144.99;86.70;52435.88;5375722;26;20069;-65
2024/04/15 00:33:46;;;;;;;;;;;;;;;-144.99;86.62;52468.47;5375487;26;19929;-65
2024/04/15 00:36:15;;;;;;;;;;;;;;;-144.99;87.00;52444.03;5368151;26;19937;-65
2024/04/15 00:38:40;;;;;;;;;;;;;;;-144.99;87.39;52472.56;5371881;26;19998;-65
2024/04/15 00:41:12;;;;;;;;;;;;;;;-144.99;87.11;52444.03;5366476;26;19999;-65
2024/04/15 00:43:37;;;;;;;;;;;;;;;-144.99;87.69;52488.84;5375381;26;20024;-65
2024/04/15 00:46:06;;;;;;;;;;;;;;;-144.99;87.62;52476.63;5363932;26;19938;-65
2024/04/15 00:48:32;;;;;;;;;;;;;;;-144.99;87.69;52472.56;5372960;26;20244;-66
2024/04/15 00:51:01;;;;;;;;;;;;;;;-144.99;88.15;52480.72;5372347;26;19944;-65
2024/04/15 00:53:27;;;;;;;;;;;;;;;-144.99;88.08;52464.41;5367380;26;19930;-65
2024/04/15 00:55:58;;;;;;;;;;;;;;;-144.99;88.28;52456.25;5370128;26;19931;-65
2024/04/15 00:58:26;;;;;;;;;;;;;;;-144.99;88.35;52470.50;5375466;26;19929;-65
2024/04/15 01:00:55;;;;;;;;;;;;;;;-144.99;88.99;52456.25;5365720;26;19938;-66
2024/04/15 01:03:22;;;;;;;;;;;;;;;-144.99;89.04;52472.56;5373675;26;19929;-66
2024/04/15 01:05:51;;;;;;;;;;;;;;;-144.99;89.41;52462.34;5374363;26;19942;-66
2024/04/15 01:08:17;;;;;;;;;;;;;;;-144.99;89.65;52488.84;5362916;26;19976;-65
2024/04/15 01:10:46;;;;;;;;;;;;;;;-144.99;89.69;52444.03;5363066;26;19999;-65
2024/04/15 01:13:12;;;;;;;;;;;;;;;-144.99;89.97;52448.09;5373633;26;19940;-62
2024/04/15 01:15:43;;;;;;;;;;;;;;;-144.99;90.40;52444.03;5375246;26;20446;-62
2024/04/15 01:18:09;;;;;;;;;;;;;;;-144.99;90.65;52456.25;5372056;26;20340;-62
2024/04/15 01:20:38;;;;;;;;;;;;;;;-144.99;90.72;52444.03;5363417;26;19936;-64
2024/04/15 01:23:04;;;;;;;;;;;;;;;-144.99;91.11;52456.25;5368486;26;20513;-63
2024/04/15 01:25:36;;;;;;;;;;;;;;;-144.99;91.05;52444.03;5374380;26;19930;-63
2024/04/15 01:28:02;;;;;;;;;;;;;;;-144.99;91.25;52439.94;5367601;26;19930;-63
2024/04/15 01:30:30;;;;;;;;;;;;;;;-144.99;91.35;52464.41;5374558;26;20566;-64
2024/04/15 01:32:57;;;;;;;;;;;;;;;-144.99;91.82;52460.31;5358841;26;19929;-62
2024/04/15 01:35:26;;;;;;;;;;;;;;;-144.99;91.79;52468.47;5374068;26;19933;-63
2024/04/15 01:37:53;;;;;;;;;;;;;;;-144.99;91.51;52464.41;5362809;26;19937;-63
2024/04/15 01:40:21;;;;;;;;;;;;;;;-144.99;91.64;52484.78;5371640;26;19981;-64
2024/04/15 01:42:50;;;;;;;;;;;;;;;-144.99;91.60;52480.72;5372740;26;19929;-63
2024/04/15 01:45:18;;;;;;;;;;;;;;;-144.99;91.51;52484.78;5366082;26;20351;-63
2024/04/15 01:47:45;;;;;;;;;;;;;;;-144.99;91.23;52476.63;5368886;26;20022;-63
2024/04/15 01:50:14;;;;;;;;;;;;;;;-144.99;91.08;52464.41;5371300;26;20374;-63
2024/04/15 01:52:40;;;;;;;;;;;;;;;-144.99;91.23;52460.31;5361470;26;20434;-60
2024/04/15 01:55:09;;;;;;;;;;;;;;;-144.99;91.34;52427.72;5368966;26;19945;-60
2024/04/15 01:57:35;;;;;;;;;;;;;;;-144.99;91.42;52484.78;5367290;26;20020;-60
2024/04/15 02:00:08;;;;;;;;;;;;;;;-144.99;91.30;52501.09;5360468;26;20068;-62
2024/04/15 02:02:34;;;;;;;;;;;;;;;-144.99;91.18;52444.03;5365630;26;19998;-61
2024/04/15 02:05:02;;;;;;;;;;;;;;;-144.99;91.16;52456.25;5364821;26;19934;-62
2024/04/15 02:07:28;;;;;;;;;;;;;;;-144.99;90.88;52497.00;5368340;26;19929;-60
2024/04/15 02:09:57;;;;;;;;;;;;;;;-144.99;91.29;52456.25;5357173;26;20000;-61
2024/04/15 02:12:22;;;;;;;;;;;;;;;-144.99;91.74;52415.47;5376764;26;20374;-62
2024/04/15 02:14:51;;;;;;;;;;;;;;;-144.99;92.21;52437.91;5374276;26;19934;-63
2024/04/15 02:17:19;;;;;;;;;;;;;;;-144.99;93.05;52427.72;5368873;26;19933;-63
2024/04/15 02:19:48;;;;;;;;;;;;;;;-144.99;93.09;52488.84;5371305;26;19930;-64
2024/04/15 02:22:14;;;;;;;;;;;;;;;-144.99;93.64;52480.72;5380760;26;19933;-64
2024/04/15 02:24:42;;;;;;;;;;;;;;;-144.99;93.78;52460.31;5372765;26;19953;-63
2024/04/15 02:27:08;;;;;;;;;;;;;;;-144.99;94.37;52497.00;5380338;26;19936;-64
2024/04/15 02:29:37;;;;;;;;;;;;;;;-144.99;94.59;52478.66;5374253;26;20175;-63
2024/04/15 02:32:03;;;;;;;;;;;;;;;-144.99;95.00;52452.16;5380520;26;19929;-63
2024/04/15 02:34:34;;;;;;;;;;;;;;;-144.99;95.58;52501.09;5384409;26;19935;-64
2024/04/15 02:37:00;;;;;;;;;;;;;;;-144.99;95.89;52488.84;5382411;26;19934;-63
2024/04/15 02:39:28;;;;;;;;;;;;;;;-144.99;96.28;52439.94;5378038;26;19981;-63
2024/04/15 02:41:54;;;;;;;;;;;;;;;-144.99;96.30;52476.63;5374794;26;19929;-63
2024/04/15 02:44:23;;;;;;;;;;;;;;;-144.99;96.16;52423.63;5380472;26;19937;-63
2024/04/15 02:46:49;;;;;;;;;;;;;;;-144.99;96.75;52456.25;5372986;26;19937;-60
2024/04/15 02:49:17;;;;;;;;;;;;;;;-144.99;96.85;52448.09;5374845;26;19958;-61
2024/04/15 02:51:46;;;;;;;;;;;;;;;-144.99;96.75;52448.09;5366761;26;20418;-61
2024/04/15 02:54:14;;;;;;;;;;;;;;;-144.99;97.48;52464.41;5383733;26;20279;-61
2024/04/15 02:56:41;;;;;;;;;;;;;;;-144.99;97.60;52444.03;5383952;26;19930;-60
2024/04/15 02:59:10;;;;;;;;;;;;;;;-144.99;97.43;52460.31;5368873;26;19929;-61
2024/04/15 03:01:35;;;;;;;;;;;;;;;-144.99;97.34;52505.16;5372144;26;19937;-61
2024/04/15 03:04:04;;;;;;;;;;;;;;;-144.99;97.30;52431.78;5377937;26;20305;-61
2024/04/15 03:06:30;;;;;;;;;;;;;;;-144.99;97.12;52476.63;5374998;26;19940;-62
2024/04/15 03:09:01;;;;;;;;;;;;;;;-144.99;97.22;52488.84;5370790;26;19949;-62
2024/04/15 03:11:27;;;;;;;;;;;;;;;-144.99;97.15;52435.88;5382186;26;19936;-61
2024/04/15 03:13:55;;;;;;;;;;;;;;;-144.99;97.34;52448.09;5377866;26;20385;-61
2024/04/15 03:16:21;;;;;;;;;;;;;;;-144.99;97.06;52474.59;5365753;26;19930;-61
2024/04/15 03:18:50;;;;;;;;;;;;;;;-144.99;97.31;52484.78;5366243;26;19998;-63
2024/04/15 03:21:19;;;;;;;;;;;;;;;-144.99;97.52;52439.94;5374938;26;19936;-63
2024/04/15 03:23:48;;;;;;;;;;;;;;;-144.99;97.42;52484.78;5375187;26;20243;-63
2024/04/15 03:26:16;;;;;;;;;;;;;;;-144.99;97.89;52464.41;5365473;26;20236;-63
2024/04/15 03:28:45;;;;;;;;;;;;;;;-144.99;97.85;52448.09;5369104;26;20385;-63
2024/04/15 03:31:11;;;;;;;;;;;;;;;-144.99;97.91;52435.88;5366868;26;19944;-63
2024/04/15 03:33:40;;;;;;;;;;;;;;;-144.99;97.76;52509.25;5366231;26;20275;-63
2024/04/15 03:36:06;;;;;;;;;;;;;;;-144.99;97.64;52501.09;5370091;26;19976;-63
2024/04/15 03:38:34;;;;;;;;;;;;;;;-144.99;97.73;52456.25;5378916;26;19948;-63
2024/04/15 03:41:03;;;;;;;;;;;;;;;-144.99;98.09;52488.84;5369646;26;20322;-63
2024/04/15 03:43:34;;;;;;;;;;;;;;;-144.99;97.84;52468.47;5367117;26;19934;-63
2024/04/15 03:46:00;;;;;;;;;;;;;;;-144.99;97.97;52505.16;5367966;26;20423;-62
2024/04/15 03:48:29;;;;;;;;;;;;;;;-144.99;97.88;52470.50;5371329;26;19929;-62
2024/04/15 03:50:55;;;;;;;;;;;;;;;-144.99;98.21;52468.47;5371202;26;20277;-62
2024/04/15 03:53:23;;;;;;;;;;;;;;;-144.99;98.13;52460.31;5366811;26;19937;-62
2024/04/15 03:55:52;;;;;;;;;;;;;;;-144.99;98.05;52452.16;5368033;26;20027;-61
2024/04/15 03:58:20;;;;;;;;;;;;;;;-144.99;98.00;52435.88;5368328;26;20299;-62
2024/04/15 04:00:49;;;;;;;;;;;;;;;-144.99;98.61;52448.09;5376948;26;19930;-63
2024/04/15 04:03:18;;;;;;;;;;;;;;;-144.99;98.31;52464.41;5368774;26;19936;-61
2024/04/15 04:05:44;;;;;;;;;;;;;;;-144.99;98.45;52486.81;5369340;26;19930;-61
2024/04/15 04:08:12;;;;;;;;;;;;;;;-144.99;98.51;52486.81;5373071;26;19936;-61
2024/04/15 04:10:38;;;;;;;;;;;;;;;-144.99;98.66;52494.97;5363180;26;19940;-67
2024/04/15 04:13:06;;;;;;;;;;;;;;;-144.99;98.62;52456.25;5363186;26;19942;-69
2024/04/15 04:15:36;;;;;;;;;;;;;;;-144.99;98.74;52452.16;5366946;26;19929;-67
2024/04/15 04:18:07;;;;;;;;;;;;;;;-144.99;98.59;52476.63;5358936;26;20248;-68
2024/04/15 04:20:33;;;;;;;;;;;;;;;-144.99;98.63;52476.63;5375098;26;20240;-65
2024/04/15 04:23:02;;;;;;;;;;;;;;;-144.99;98.72;52468.47;5375325;26;19940;-64
2024/04/15 04:25:28;;;;;;;;;;;;;;;-144.99;98.73;52452.16;5361833;26;19930;-67
2024/04/15 04:27:56;;;;;;;;;;;;;;;-144.99;98.77;52476.63;5367265;26;20009;-66
2024/04/15 04:30:22;;;;;;;;;;;;;;;-144.99;99.00;52464.41;5362654;26;20240;-69
2024/04/15 04:32:51;;;;;;;;;;;;;;;-144.99;99.16;52439.94;5366326;26;19930;-68
2024/04/15 04:35:19;;;;;;;;;;;;;;;-144.99;99.24;52427.72;5358166;26;20257;-66
2024/04/15 04:37:48;;;;;;;;;;;;;;;-144.99;99.39;52435.88;5360058;26;19930;-69
2024/04/15 04:40:14;;;;;;;;;;;;;;;-144.99;99.29;52452.16;5371850;26;19929;-72
2024/04/15 04:42:44;;;;;;;;;;;;;;;-144.99;99.45;52403.25;5375983;26;19930;-71
2024/04/15 04:45:10;;;;;;;;;;;;;;;-144.99;99.50;52448.09;5373667;26;19929;-69
2024/04/15 04:47:39;;;;;;;;;;;;;;;-144.99;99.53;52407.31;5371908;26;19988;-70
2024/04/15 04:50:05;;;;;;;;;;;;;;;-144.99;99.64;52484.78;5366434;26;20228;-70
2024/04/15 04:52:36;;;;;;;;;;;;;;;-144.99;99.86;52452.16;5369584;26;20028;-69
2024/04/15 04:55:02;;;;;;;;;;;;;;;-144.99;100.00;52435.88;5362176;26;19937;-70
2024/04/15 04:57:30;;;;;;;;;;;;;;;-144.99;100.00;52415.47;5363438;26;20346;-70
2024/04/15 04:59:57;;;;;;;;;;;;;;;-144.99;100.00;52470.50;5375197;26;19930;-70
2024/04/15 05:02:25;;;;;;;;;;;;;;;-144.99;100.00;52435.88;5365890;26;19965;-70
2024/04/15 05:04:51;;;;;;;;;;;;;;;-144.99;100.00;52460.31;5368320;26;20284;-68
2024/04/15 05:07:20;;;;;;;;;;;;;;;-144.99;100.00;52458.28;5376036;26;19945;-69
2024/04/15 05:09:48;;;;;;;;;;;;;;;-144.99;99.74;52415.47;5376294;26;20037;-70
2024/04/15 05:12:17;;;;;;;;;;;;;;;-144.99;99.85;52437.91;5375675;26;19944;-64
2024/04/15 05:14:42;;;;;;;;;;;;;;;-144.99;99.22;52435.88;5367474;26;19930;-64
2024/04/15 05:17:11;;;;;;;;;;;;;;;-144.99;98.70;52452.16;5372529;26;19999;-65
2024/04/15 05:19:37;;;;;;;;;;;;;;;-144.99;98.63;52448.09;5372913;26;19934;-65
2024/04/15 05:22:06;;;;;;;;;;;;;;;-144.99;98.50;52419.56;5374947;26;19999;-65
2024/04/15 05:24:32;;;;;;;;;;;;;;;-144.99;99.34;52423.63;5374930;26;19929;-65
2024/04/15 05:27:03;;;;;;;;;;;;;;;-144.99;98.49;52448.09;5371657;26;20342;-68
2024/04/15 05:29:29;;;;;;;;;;;;;;;-144.99;97.87;52460.31;4994496;26;9999949;-68
2024/04/15 05:31:57;;;;;;;;;;;;;;;-144.99;97.47;52482.75;5362469;26;19947;-68
2024/04/15 05:34:23;;;;;;;;;;;;;;;-144.99;96.92;52484.78;5353504;26;19930;-67
2024/04/15 05:36:52;;;;;;;;;;;;;;;-144.99;96.50;52419.56;5361507;26;19958;-67
2024/04/15 05:39:18;;;;;;;;;;;;;;;-144.99;96.18;52423.63;5366575;26;19936;-68
2024/04/15 05:41:46;;;;;;;;;;;;;;;-144.99;96.00;52456.25;5369597;26;19937;-68
2024/04/15 05:44:15;;;;;;;;;;;;;;;-144.99;96.42;52439.94;5370680;26;19934;-69
2024/04/15 05:46:50;;;;;;;;;;;;;;;-144.99;96.50;52452.16;5360927;26;19934;-68
2024/04/15 05:49:16;;;;;;;;;;;;;;;-144.99;96.63;52452.16;5360707;26;19942;-68
2024/04/15 05:51:46;;;;;;;;;;;;;;;-144.99;96.71;52460.31;5369217;26;19941;-68
2024/04/15 05:54:12;;;;;;;;;;;;;;;-144.99;96.93;52480.72;5358566;26;19937;-68
2024/04/15 05:56:40;;;;;;;;;;;;;;;-144.99;97.12;52439.94;5369331;26;19935;-68
2024/04/15 05:59:06;;;;;;;;;;;;;;;-144.99;97.04;52435.88;5364328;26;19936;-68
2024/04/15 06:01:37;;;;;;;;;;;;;;;-144.99;96.29;52435.88;5364336;26;19942;-68
2024/04/15 06:04:05;;;;;;;;;;;;;;;-144.99;96.45;52423.63;5360847;26;20047;-68
2024/04/15 06:06:34;;;;;;;;;;;;;;;-144.99;96.62;52437.91;5360080;26;19940;-68
2024/04/15 06:09:00;;;;;;;;;;;;;;;-144.99;95.75;52431.78;5354981;26;19929;-67
2024/04/15 06:11:28;;;;;;;;;;;;;;;-144.99;95.51;52464.41;5362995;26;20038;-67
2024/04/15 06:13:54;;;;;;;;;;;;;;;-144.99;94.98;52395.09;5363437;26;19929;-68
2024/04/15 06:16:23;;;;;;;;;;;;;;;-144.99;94.01;52411.41;5359154;26;19938;-68
2024/04/15 06:18:51;;;;;;;;;;;;;;;-144.99;93.29;52431.78;5358140;26;20020;-67
2024/04/15 06:21:20;;;;;;;;;;;;;;;-144.99;92.38;52429.75;5358732;26;20260;-68
2024/04/15 06:23:46;;;;;;;;;;;;;;;-144.99;91.94;52386.94;5367389;26;20162;-68
2024/04/15 06:26:14;;;;;;;;;;;;;;;-144.99;90.84;52415.47;5354235;26;19944;-68
2024/04/15 06:28:40;;;;;;;;;;;;;;;-144.99;90.44;52374.72;5370085;26;19929;-68
2024/04/15 06:31:09;;;;;;;;;;;;;;;-144.99;90.11;52407.31;5357332;26;19997;-68
2024/04/15 06:33:35;;;;;;;;;;;;;;;-144.99;88.96;52439.94;5369603;26;20028;-68
2024/04/15 06:36:07;;;;;;;;;;;;;;;-144.99;88.71;52378.78;5364464;26;19945;-68
2024/04/15 06:38:32;;;;;;;;;;;;;;;-144.99;87.98;52472.56;5369602;26;19965;-68
2024/04/15 06:41:01;;;;;;;;;;;;;;;-144.99;88.24;52395.09;5358128;26;19942;-69
2024/04/15 06:43:27;;;;;;;;;;;;;;;-144.99;88.39;52407.31;5348797;26;19930;-68
2024/04/15 06:45:55;;;;;;;;;;;;;;;-144.99;88.58;52395.09;5364222;26;19937;-68
2024/04/15 06:48:21;;;;;;;;;;;;;;;-144.99;88.51;52435.88;5369194;26;19960;-68
2024/04/15 06:50:50;;;;;;;;;;;;;;;-144.99;88.67;52429.75;5358318;26;20121;-68
2024/04/15 06:53:19;;;;;;;;;;;;;;;-144.99;88.07;52409.38;5361583;26;19936;-68
2024/04/15 06:55:47;;;;;;;;;;;;;;;-144.99;87.29;52366.56;5367804;26;20401;-68
2024/04/15 06:58:13;;;;;;;;;;;;;;;-144.99;85.43;52391.03;5364416;26;19936;-69
2024/04/15 07:00:42;;;;;;;;;;;;;;;-144.99;84.30;52374.72;5365844;26;20360;-69
2024/04/15 07:03:08;;;;;;;;;;;;;;;-144.99;83.09;52407.31;5365493;26;19987;-68
2024/04/15 07:05:36;;;;;;;;;;;;;;;-144.99;83.75;52417.53;5363377;26;20364;-67
2024/04/15 07:08:02;;;;;;;;;;;;;;;-144.99;82.95;52382.88;5371669;26;20367;-68
2024/04/15 07:10:34;;;;;;;;;;;;;;;-144.99;82.08;52391.03;5371724;26;19964;-69
2024/04/15 07:13:00;;;;;;;;;;;;;;;-144.99;82.55;52399.19;5365594;26;20268;-68
2024/04/15 07:15:28;;;;;;;;;;;;;;;-144.99;82.30;52395.09;5357868;26;20350;-69
2024/04/15 07:17:55;;;;;;;;;;;;;;;-144.99;81.46;52431.78;5356997;26;19930;-68
2024/04/15 07:20:24;;;;;;;;;;;;;;;-144.99;81.55;52395.09;5364909;26;19930;-68
2024/04/15 07:22:50;;;;;;;;;;;;;;;-144.99;81.38;52403.25;5359270;26;20242;-69
2024/04/15 07:25:18;;;;;;;;;;;;;;;-144.99;81.63;52374.72;5372782;26;20659;-68
2024/04/15 07:27:48;;;;;;;;;;;;;;;-144.99;81.07;52399.19;5357941;26;20371;-68
2024/04/15 07:30:16;;;;;;;;;;;;;;;-144.99;80.77;52403.25;5369494;26;20422;-67
2024/04/15 07:32:42;;;;;;;;;;;;;;;-144.99;80.34;52421.59;5372797;26;20306;-69
2024/04/15 07:35:11;;;;;;;;;;;;;;;-144.99;80.22;52366.56;5372815;26;19937;-69
2024/04/15 07:37:37;;;;;;;;;;;;;;;-144.99;80.04;52386.94;5357126;26;20376;-69
2024/04/15 07:40:06;;;;;;;;;;;;;;;-144.99;79.47;52419.56;5365197;26;19930;-68
2024/04/15 07:42:32;;;;;;;;;;;;;;;-144.99;79.89;52399.19;5363241;26;19937;-68
2024/04/15 07:45:03;;;;;;;;;;;;;;;-144.99;80.50;52372.69;5368333;26;19938;-69
2024/04/15 07:47:29;;;;;;;;;;;;;;;-144.99;80.62;52395.09;5358767;26;20328;-69
2024/04/15 07:49:58;;;;;;;;;;;;;;;-144.99;80.37;52386.94;5370321;26;19976;-68
2024/04/15 07:52:24;;;;;;;;;;;;;;;-144.99;81.15;52395.09;5360020;26;19934;-69
2024/04/15 07:54:54;;;;;;;;;;;;;;;-144.99;81.33;52423.63;5369722;26;19941;-69
2024/04/15 07:57:20;;;;;;;;;;;;;;;-144.99;81.79;52425.66;5359841;26;19960;-68
2024/04/15 07:59:49;;;;;;;;;;;;;;;-144.99;81.12;52391.03;5363528;26;20061;-68
2024/04/15 08:02:17;;;;;;;;;;;;;;;-144.99;79.70;52419.56;5372125;26;19998;-69
2024/04/15 08:04:46;;;;;;;;;;;;;;;-144.99;79.32;52378.78;5365452;26;20418;-69
2024/04/15 08:07:12;;;;;;;;;;;;;;;-144.99;79.02;52391.03;5371449;26;20323;-69
2024/04/15 08:09:41;;;;;;;;;;;;;;;-144.99;79.69;52378.78;5362123;26;19930;-68
2024/04/15 08:12:07;;;;;;;;;;;;;;;-144.99;78.06;52376.75;5360025;26;19930;-69
2024/04/15 08:14:35;;;;;;;;;;;;;;;-144.99;76.71;52350.25;5366352;26;19929;-68
2024/04/15 08:17:01;;;;;;;;;;;;;;;-144.99;75.55;52354.34;5372367;26;20224;-68
2024/04/15 08:19:32;;;;;;;;;;;;;;;-144.99;75.87;52358.41;5380711;26;19942;-69
2024/04/15 08:21:58;;;;;;;;;;;;;;;-144.99;76.10;52395.09;5366474;26;19941;-68
2024/04/15 08:24:27;;;;;;;;;;;;;;;-144.99;76.91;52354.34;5365817;26;20393;-69
2024/04/15 08:26:52;;;;;;;;;;;;;;;-144.99;75.67;52350.25;5369391;26;20842;-70
2024/04/15 08:29:21;;;;;;;;;;;;;;;-144.99;76.39;52366.56;5357540;26;19930;-70
2024/04/15 08:31:50;;;;;;;;;;;;;;;-144.99;74.88;52395.09;5359034;26;20007;-69
2024/04/15 08:34:15;;;;;;;;;;;;;;;-144.99;73.73;52358.41;5369035;26;19941;-68
2024/04/15 08:36:47;;;;;;;;;;;;;;;-144.99;73.37;52354.34;5368430;26;19968;-68
2024/04/15 08:39:12;;;;;;;;;;;;;;;-144.99;71.88;52333.94;5368657;26;19930;-68
2024/04/15 08:41:47;;;;;;;;;;;;;;;-144.99;69.41;52376.75;5366505;26;19949;-69
2024/04/15 08:44:17;;;;;;;;;;;;;;;-144.99;68.22;52362.50;5371544;26;20719;-69
2024/04/15 08:46:47;;;;;;;;;;;;;;;-144.99;69.52;52350.25;5368446;26;19929;-69
2024/04/15 08:49:13;;;;;;;;;;;;;;;-144.99;69.36;52370.63;5371352;26;20260;-69
2024/04/15 08:51:42;;;;;;;;;;;;;;;-144.99;68.13;52370.63;5353802;26;19937;-69
2024/04/15 08:54:11;;;;;;;;;;;;;;;-144.99;67.31;52374.72;5360022;26;19937;-68
2024/04/15 08:56:41;;;;;;;;;;;;;;;-144.99;66.36;52413.44;5365748;26;20455;-70
2024/04/15 08:59:07;;;;;;;;;;;;;;;-144.99;66.32;52338.03;5370924;26;19929;-69
2024/04/15 09:01:36;;;;;;;;;;;;;;;-144.99;66.55;52354.34;5363563;26;19937;-69
2024/04/15 09:04:02;;;;;;;;;;;;;;;-144.99;66.98;52354.34;5366629;26;19929;-69
2024/04/15 09:06:31;;;;;;;;;;;;;;;-144.99;68.16;52368.59;5362507;26;19940;-70
2024/04/15 09:08:56;;;;;;;;;;;;;;;-144.99;66.86;52393.06;5352477;26;19957;-69
2024/04/15 09:11:28;;;;;;;;;;;;;;;-144.99;67.01;52342.09;5367524;26;19929;-68
2024/04/15 09:13:54;;;;;;;;;;;;;;;-144.99;66.04;52382.88;5363024;26;19929;-68
2024/04/15 09:16:22;;;;;;;;;;;;;;;-144.99;64.63;52378.78;5359519;26;19988;-69
2024/04/15 09:18:48;;;;;;;;;;;;;;;-144.99;61.97;52378.78;5362952;26;19929;-70
2024/04/15 09:21:17;;;;;;;;;;;;;;;-144.99;64.23;52374.72;5360430;26;19999;-70
2024/04/15 09:23:43;;;;;;;;;;;;;;;-144.99;63.86;52378.78;5363090;26;19930;-70
2024/04/15 09:26:11;;;;;;;;;;;;;;;-144.99;63.51;52374.72;5363085;26;20549;-70
2024/04/15 09:28:40;;;;;;;;;;;;;;;-144.99;63.31;52346.19;5367477;26;19937;-70
2024/04/15 09:31:09;;;;;;;;;;;;;;;-144.99;63.14;52376.75;5358292;26;19929;-70
2024/04/15 09:33:35;;;;;;;;;;;;;;;-144.99;63.72;52366.56;5365042;26;19937;-70
2024/04/15 09:36:04;;;;;;;;;;;;;;;-144.99;62.85;52384.91;5362613;26;19937;-69
2024/04/15 09:38:30;;;;;;;;;;;;;;;-144.99;62.36;52338.03;5370778;26;19936;-69
2024/04/15 09:41:00;;;;;;;;;;;;;;;-144.99;61.45;52352.28;5368077;26;20391;-69
2024/04/15 09:43:28;;;;;;;;;;;;;;;-144.99;61.22;52399.19;5363932;26;19937;-68
2024/04/15 09:46:00;;;;;;;;;;;;;;;-144.99;61.22;52333.94;5363361;26;19929;-68
2024/04/15 09:48:27;;;;;;;;;;;;;;;-144.99;61.55;52350.25;5367428;26;19983;-69
2024/04/15 09:50:57;;;;;;;;;;;;;;;-144.99;61.17;52329.88;5355206;26;20122;-69
2024/04/15 09:53:28;;;;;;;;;;;;;;;-144.99;60.65;52350.25;5357589;26;19940;-70
2024/04/15 09:55:59;;;;;;;;;;;;;;;-144.99;60.84;52354.34;5369058;26;19937;-69
2024/04/15 09:58:26;;;;;;;;;;;;;;;-144.99;60.46;52346.19;5366586;26;19985;-69
2024/04/15 10:00:58;;;;;;;;;;;;;;;-144.99;60.48;52366.56;5369757;26;19930;-69
2024/04/15 10:03:30;;;;;;;;;;;;;;;-144.99;60.25;52327.84;5354570;26;19976;-69
2024/04/15 10:06:03;;;;;;;;;;;;;;;-144.99;59.74;52362.50;5362489;26;20007;-69
2024/04/15 10:08:29;;;;;;;;;;;;;;;-144.99;59.04;52342.09;5356673;26;19930;-69
2024/04/15 10:10:59;;;;;;;;;;;;;;;-144.99;57.56;52325.81;5361977;26;19929;-68
2024/04/15 10:13:25;;;;;;;;;;;;;;;-144.99;57.63;52327.84;5352842;26;19929;-68
2024/04/15 10:16:00;;;;;;;;;;;;;;;-144.99;57.51;52366.56;5366642;26;19937;-68
2024/04/15 10:18:31;;;;;;;;;;;;;;;-144.99;57.42;52333.94;5369099;26;19930;-68
2024/04/15 10:21:00;;;;;;;;;;;;;;;-144.99;57.74;52352.28;5367390;26;19933;-68
2024/04/15 10:23:28;;;;;;;;;;;;;;;-144.99;57.79;52317.66;5358098;26;19980;-69
2024/04/15 10:25:56;;;;;;;;;;;;;;;-144.99;58.52;52333.94;5364865;26;19929;-68
2024/04/15 10:28:22;;;;;;;;;;;;;;;-144.99;58.43;52329.88;5361875;26;19930;-68
2024/04/15 10:30:51;;;;;;;;;;;;;;;-144.99;58.39;52370.63;5362587;26;19975;-69
2024/04/15 10:33:17;;;;;;;;;;;;;;;-144.99;58.23;52386.94;5359582;26;19936;-69
2024/04/15 10:35:52;;;;;;;;;;;;;;;-144.99;58.46;52378.78;5371655;26;19946;-68
2024/04/15 10:38:18;;;;;;;;;;;;;;;-144.99;58.20;52358.41;5356235;26;20297;-69
2024/04/15 10:40:48;;;;;;;;;;;;;;;-144.99;58.40;52407.31;5368649;26;19937;-68
2024/04/15 10:43:15;;;;;;;;;;;;;;;-144.99;58.54;52378.78;5370636;26;20672;-68
2024/04/15 10:45:43;;;;;;;;;;;;;;;-144.99;59.17;52366.56;5365005;26;19933;-68
2024/04/15 10:48:10;;;;;;;;;;;;;;;-144.99;59.29;52362.50;5371042;26;19936;-68
2024/04/15 10:50:38;;;;;;;;;;;;;;;-144.99;57.73;52338.03;5359901;26;20019;-68
2024/04/15 10:53:07;;;;;;;;;;;;;;;-144.99;57.73;52382.88;5365378;26;19929;-68
2024/04/15 10:55:35;;;;;;;;;;;;;;;-144.99;57.86;52352.28;5366405;26;20418;-68
2024/04/15 10:58:02;;;;;;;;;;;;;;;-144.99;58.56;52364.53;5360465;26;19940;-69
2024/04/15 11:00:31;;;;;;;;;;;;;;;-144.99;58.73;52382.88;5369920;26;19929;-69
2024/04/15 11:02:58;;;;;;;;;;;;;;;-144.99;58.25;52364.53;5355956;26;19930;-69
2024/04/15 11:05:26;;;;;;;;;;;;;;;-144.99;57.38;52378.78;5354290;26;20384;-69
2024/04/15 11:07:53;;;;;;;;;;;;;;;-144.99;57.32;52358.41;5367717;26;19930;-69
2024/04/15 11:10:24;;;;;;;;;;;;;;;-144.99;57.57;52411.41;5332380;26;19930;-69
2024/04/15 11:12:51;;;;;;;;;;;;;;;-144.99;57.91;52415.47;5366825;26;19930;-69
2024/04/15 11:15:21;;;;;;;;;;;;;;;-144.99;58.80;52435.88;5361412;26;19930;-69
2024/04/15 11:17:47;;;;;;;;;;;;;;;-144.99;59.35;52456.25;5366312;26;19991;-69
2024/04/15 11:20:15;;;;;;;;;;;;;;;-144.99;58.74;52421.59;5373838;26;19977;-69
2024/04/15 11:22:41;;;;;;;;;;;;;;;-144.99;58.93;52433.81;5373461;26;19930;-69
2024/04/15 11:25:10;;;;;;;;;;;;;;;-144.99;59.73;52411.41;5361766;26;19929;-69
2024/04/15 11:27:40;;;;;;;;;;;;;;;-144.99;58.37;52415.47;5366736;26;19995;-69
2024/04/15 11:30:10;;;;;;;;;;;;;;;-144.99;59.10;52427.72;5361940;26;19930;-69
2024/04/15 11:32:36;;;;;;;;;;;;;;;-144.99;58.32;52425.66;5371132;26;20991;-68
2024/04/15 11:35:05;;;;;;;;;;;;;;;-144.99;58.75;52448.09;5366995;26;19937;-68
2024/04/15 11:37:31;;;;;;;;;;;;;;;-144.99;58.94;52417.53;5362366;26;19937;-69
2024/04/15 11:40:00;;;;;;;;;;;;;;;-144.99;58.99;52391.03;5368765;26;19929;-68
2024/04/15 11:42:26;;;;;;;;;;;;;;;-144.99;59.60;52423.63;5374140;26;19930;-68
2024/04/15 11:44:59;;;;;;;;;;;;;;;-144.99;59.11;52411.41;5370149;26;19930;-69
2024/04/15 11:47:25;;;;;;;;;;;;;;;-144.99;59.04;52431.78;5361892;26;20401;-68
2024/04/15 11:49:54;;;;;;;;;;;;;;;-144.99;59.26;52439.94;5369683;26;19929;-68
2024/04/15 11:52:21;;;;;;;;;;;;;;;-144.99;58.99;52419.56;5353658;26;19930;-68
2024/04/15 11:54:49;;;;;;;;;;;;;;;-144.99;59.34;52378.78;5359950;26;19930;-68
2024/04/15 11:57:15;;;;;;;;;;;;;;;-144.99;59.62;52399.19;5368098;26;19948;-68
2024/04/15 11:59:44;;;;;;;;;;;;;;;-144.99;60.46;52423.63;5361339;26;20000;-68
2024/04/15 12:02:13;;;;;;;;;;;;;;;-144.99;60.11;52427.72;5370687;26;19973;-68
2024/04/15 12:04:48;;;;;;;;;;;;;;;-144.99;60.50;52423.63;5336307;26;19929;-68
2024/04/15 12:07:13;;;;;;;;;;;;;;;-144.99;62.68;52439.94;5358795;26;19938;-68
2024/04/15 12:09:43;;;;;;;;;;;;;;;-144.99;64.08;52395.09;5357331;26;20390;-69
2024/04/15 12:12:09;;;;;;;;;;;;;;;-144.99;65.45;52407.31;5370573;26;19936;-68
2024/04/15 12:14:38;;;;;;;;;;;;;;;-144.99;65.53;52444.03;5363395;26;20329;-69
2024/04/15 12:17:04;;;;;;;;;;;;;;;-144.99;65.75;52448.09;5363605;26;19936;-69
2024/04/15 12:19:35;;;;;;;;;;;;;;;-144.99;66.29;52391.03;5357986;26;20404;-69
2024/04/15 12:22:01;;;;;;;;;;;;;;;-144.99;65.85;52370.63;5361755;26;19930;-68
2024/04/15 12:24:29;;;;;;;;;;;;;;;-144.99;64.19;52415.47;5363282;26;20003;-68
2024/04/15 12:26:55;;;;;;;;;;;;;;;-144.99;64.55;52346.19;5364274;26;19976;-69
2024/04/15 12:29:24;;;;;;;;;;;;;;;-144.99;63.83;52366.56;5359144;26;20275;-69